sensor_id;sensor_type;location;lat;lon;timestamp;temperature;humidity
45137;DHT22;30894;51.740;19.498;2023-03-01T00:01:39;-8.80;99.90
45137;DHT22;30894;51.740;19.498;2023-03-01T00:04:06;-8.80;99.90
45137;DHT22;30894;51.740;19.498;2023-03-01T00:06:32;-8.70;99.90
45137;DHT22;30894;51.740;19.498;2023-03-01T00:08:59;-8.70;99.90
45137;DHT22;30894;51.740;19.498;2023-03-01T00:11:30;-8.70;99.90
45137;DHT22;30894;51.740;19.498;2023-03-01T00:13:59;-8.70;99.90
45137;DHT22;30894;51.740;19.498;2023-03-01T00:16:29;-8.70;99.90
45137;DHT22;30894;51.740;19.498;2023-03-01T00:18:57;-8.60;99.90
45137;DHT22;30894;51.740;19.498;2023-03-01T00:21:24;-8.60;99.90
45137;DHT22;30894;51.740;19.498;2023-03-01T00:23:51;-8.60;99.90
45137;DHT22;30894;51.740;19.498;2023-03-01T00:26:19;-8.70;99.90
45137;DHT22;30894;51.740;19.498;2023-03-01T00:28:49;-8.80;99.90
45137;DHT22;30894;51.740;19.498;2023-03-01T00:31:21;-8.80;99.90
45137;DHT22;30894;51.740;19.498;2023-03-01T00:33:55;-8.80;99.90
45137;DHT22;30894;51.740;19.498;2023-03-01T00:36:24;-8.80;99.90
45137;DHT22;30894;51.740;19.498;2023-03-01T00:38:52;-8.80;99.90
45137;DHT22;30894;51.740;19.498;2023-03-01T00:41:20;-8.90;99.90
45137;DHT22;30894;51.740;19.498;2023-03-01T00:43:49;-8.80;99.90
45137;DHT22;30894;51.740;19.498;2023-03-01T00:46:19;-8.80;99.90
45137;DHT22;30894;51.740;19.498;2023-03-01T00:48:47;-8.70;99.90
45137;DHT22;30894;51.740;19.498;2023-03-01T00:51:22;-8.80;99.90
45137;DHT22;30894;51.740;19.498;2023-03-01T00:53:55;-8.80;99.90
45137;DHT22;30894;51.740;19.498;2023-03-01T00:56:25;-8.90;99.90
45137;DHT22;30894;51.740;19.498;2023-03-01T00:58:52;-8.90;99.90
45137;DHT22;30894;51.740;19.498;2023-03-01T01:01:21;-9.00;99.90
45137;DHT22;30894;51.740;19.498;2023-03-01T01:04:01;-9.10;99.90
45137;DHT22;30894;51.740;19.498;2023-03-01T01:06:34;-9.10;99.90
45137;DHT22;30894;51.740;19.498;2023-03-01T01:09:05;-9.20;99.90
45137;DHT22;30894;51.740;19.498;2023-03-01T01:11:32;-9.20;99.90
45137;DHT22;30894;51.740;19.498;2023-03-01T01:14:01;-9.20;99.90
45137;DHT22;30894;51.740;19.498;2023-03-01T01:16:30;-9.20;99.90
45137;DHT22;30894;51.740;19.498;2023-03-01T01:19:00;-9.20;99.90
45137;DHT22;30894;51.740;19.498;2023-03-01T01:21:27;-9.20;99.90
45137;DHT22;30894;51.740;19.498;2023-03-01T01:23:54;-9.20;99.90
45137;DHT22;30894;51.740;19.498;2023-03-01T01:26:25;-9.30;99.90
45137;DHT22;30894;51.740;19.498;2023-03-01T01:28:54;-9.30;99.90
45137;DHT22;30894;51.740;19.498;2023-03-01T01:31:22;-9.20;99.90
45137;DHT22;30894;51.740;19.498;2023-03-01T01:33:52;-9.20;99.90
45137;DHT22;30894;51.740;19.498;2023-03-01T01:36:19;-9.30;99.90
45137;DHT22;30894;51.740;19.498;2023-03-01T01:38:47;-9.20;99.90
45137;DHT22;30894;51.740;19.498;2023-03-01T01:41:14;-9.30;99.90
45137;DHT22;30894;51.740;19.498;2023-03-01T01:43:48;-9.40;99.90
45137;DHT22;30894;51.740;19.498;2023-03-01T01:46:40;-9.50;99.90
45137;DHT22;30894;51.740;19.498;2023-03-01T01:52:34;-9.50;99.90
45137;DHT22;30894;51.740;19.498;2023-03-01T01:55:10;-9.60;99.90
45137;DHT22;30894;51.740;19.498;2023-03-01T01:57:52;-9.60;99.90
45137;DHT22;30894;51.740;19.498;2023-03-01T02:00:24;-9.60;99.90
45137;DHT22;30894;51.740;19.498;2023-03-01T02:02:56;-9.50;99.90
45137;DHT22;30894;51.740;19.498;2023-03-01T02:08:17;-9.50;99.90
45137;DHT22;30894;51.740;19.498;2023-03-01T02:10:47;-9.50;99.90
45137;DHT22;30894;51.740;19.498;2023-03-01T02:13:15;-9.40;99.90
45137;DHT22;30894;51.740;19.498;2023-03-01T02:15:44;-9.50;99.90
45137;DHT22;30894;51.740;19.498;2023-03-01T02:18:14;-9.50;99.90
45137;DHT22;30894;51.740;19.498;2023-03-01T02:23:34;-9.60;99.90
45137;DHT22;30894;51.740;19.498;2023-03-01T02:26:09;-9.60;99.90
45137;DHT22;30894;51.740;19.498;2023-03-01T02:28:42;-9.60;99.90
45137;DHT22;30894;51.740;19.498;2023-03-01T02:31:15;-9.60;99.90
45137;DHT22;30894;51.740;19.498;2023-03-01T02:34:02;-9.60;99.90
45137;DHT22;30894;51.740;19.498;2023-03-01T02:36:43;-9.60;99.90
45137;DHT22;30894;51.740;19.498;2023-03-01T02:39:15;-9.50;99.90
45137;DHT22;30894;51.740;19.498;2023-03-01T02:41:48;-9.50;99.90
45137;DHT22;30894;51.740;19.498;2023-03-01T02:44:16;-9.50;99.90
45137;DHT22;30894;51.740;19.498;2023-03-01T02:46:47;-9.50;99.90
45137;DHT22;30894;51.740;19.498;2023-03-01T02:49:40;-9.40;99.90
45137;DHT22;30894;51.740;19.498;2023-03-01T02:52:14;-9.30;99.90
45137;DHT22;30894;51.740;19.498;2023-03-01T02:55:09;-9.20;99.90
45137;DHT22;30894;51.740;19.498;2023-03-01T02:57:41;-9.20;99.90
45137;DHT22;30894;51.740;19.498;2023-03-01T03:00:20;-9.20;99.90
45137;DHT22;30894;51.740;19.498;2023-03-01T03:02:52;-9.20;99.90
45137;DHT22;30894;51.740;19.498;2023-03-01T03:05:21;-9.40;99.90
45137;DHT22;30894;51.740;19.498;2023-03-01T03:07:51;-9.40;99.90
45137;DHT22;30894;51.740;19.498;2023-03-01T03:10:26;-9.50;99.90
45137;DHT22;30894;51.740;19.498;2023-03-01T03:12:57;-9.40;99.90
45137;DHT22;30894;51.740;19.498;2023-03-01T03:15:27;-9.40;99.90
45137;DHT22;30894;51.740;19.498;2023-03-01T03:17:56;-9.40;99.90
45137;DHT22;30894;51.740;19.498;2023-03-01T03:20:26;-9.40;99.90
45137;DHT22;30894;51.740;19.498;2023-03-01T03:22:56;-9.40;99.90
45137;DHT22;30894;51.740;19.498;2023-03-01T03:25:25;-9.40;99.90
45137;DHT22;30894;51.740;19.498;2023-03-01T03:27:53;-9.50;99.90
45137;DHT22;30894;51.740;19.498;2023-03-01T03:30:24;-9.60;99.90
45137;DHT22;30894;51.740;19.498;2023-03-01T03:32:52;-9.60;99.90
45137;DHT22;30894;51.740;19.498;2023-03-01T03:35:30;-9.70;99.90
45137;DHT22;30894;51.740;19.498;2023-03-01T03:38:03;-9.80;99.90
45137;DHT22;30894;51.740;19.498;2023-03-01T03:40:37;-9.80;99.90
45137;DHT22;30894;51.740;19.498;2023-03-01T03:43:08;-9.70;99.90
45137;DHT22;30894;51.740;19.498;2023-03-01T03:45:37;-9.80;99.90
45137;DHT22;30894;51.740;19.498;2023-03-01T03:48:09;-9.80;99.90
45137;DHT22;30894;51.740;19.498;2023-03-01T03:50:37;-9.80;99.90
45137;DHT22;30894;51.740;19.498;2023-03-01T03:53:11;-9.90;99.90
45137;DHT22;30894;51.740;19.498;2023-03-01T03:55:38;-9.90;99.90
45137;DHT22;30894;51.740;19.498;2023-03-01T03:58:09;-9.90;99.90
45137;DHT22;30894;51.740;19.498;2023-03-01T04:00:46;-9.90;99.90
45137;DHT22;30894;51.740;19.498;2023-03-01T04:03:16;-9.90;99.90
45137;DHT22;30894;51.740;19.498;2023-03-01T04:05:45;-9.90;99.90
45137;DHT22;30894;51.740;19.498;2023-03-01T04:08:12;-9.90;99.90
45137;DHT22;30894;51.740;19.498;2023-03-01T04:10:41;-9.90;99.90
45137;DHT22;30894;51.740;19.498;2023-03-01T04:13:12;-9.90;99.90
45137;DHT22;30894;51.740;19.498;2023-03-01T04:15:40;-9.90;99.90
45137;DHT22;30894;51.740;19.498;2023-03-01T04:18:11;-9.90;99.90
45137;DHT22;30894;51.740;19.498;2023-03-01T04:20:39;-9.90;99.90
45137;DHT22;30894;51.740;19.498;2023-03-01T04:23:10;-9.90;99.90
45137;DHT22;30894;51.740;19.498;2023-03-01T04:25:55;-9.90;99.90
45137;DHT22;30894;51.740;19.498;2023-03-01T04:28:33;-9.90;99.90
45137;DHT22;30894;51.740;19.498;2023-03-01T04:31:05;-9.90;99.90
45137;DHT22;30894;51.740;19.498;2023-03-01T04:33:50;-9.90;99.90
45137;DHT22;30894;51.740;19.498;2023-03-01T04:36:18;-10.00;99.90
45137;DHT22;30894;51.740;19.498;2023-03-01T04:38:48;-10.00;99.90
45137;DHT22;30894;51.740;19.498;2023-03-01T04:41:16;-10.10;99.90
45137;DHT22;30894;51.740;19.498;2023-03-01T04:43:44;-10.10;99.90
45137;DHT22;30894;51.740;19.498;2023-03-01T04:46:16;-10.10;99.90
45137;DHT22;30894;51.740;19.498;2023-03-01T04:48:45;-10.10;99.90
45137;DHT22;30894;51.740;19.498;2023-03-01T04:51:12;-10.20;99.90
45137;DHT22;30894;51.740;19.498;2023-03-01T04:53:42;-10.20;99.90
45137;DHT22;30894;51.740;19.498;2023-03-01T04:56:08;-10.20;99.90
45137;DHT22;30894;51.740;19.498;2023-03-01T04:58:34;-10.30;99.90
45137;DHT22;30894;51.740;19.498;2023-03-01T05:01:01;-10.30;99.90
45137;DHT22;30894;51.740;19.498;2023-03-01T05:03:49;-10.20;99.90
45137;DHT22;30894;51.740;19.498;2023-03-01T05:06:20;-10.20;99.90
45137;DHT22;30894;51.740;19.498;2023-03-01T05:08:47;-10.10;99.90
45137;DHT22;30894;51.740;19.498;2023-03-01T05:11:13;-10.00;99.90
45137;DHT22;30894;51.740;19.498;2023-03-01T05:13:40;-10.00;99.90
45137;DHT22;30894;51.740;19.498;2023-03-01T05:16:08;-10.00;99.90
45137;DHT22;30894;51.740;19.498;2023-03-01T05:18:39;-10.10;99.90
45137;DHT22;30894;51.740;19.498;2023-03-01T05:21:10;-10.10;99.90
45137;DHT22;30894;51.740;19.498;2023-03-01T05:23:39;-10.00;99.90
45137;DHT22;30894;51.740;19.498;2023-03-01T05:26:06;-10.00;99.90
45137;DHT22;30894;51.740;19.498;2023-03-01T05:28:32;-9.90;99.90
45137;DHT22;30894;51.740;19.498;2023-03-01T05:30:59;-9.80;99.90
45137;DHT22;30894;51.740;19.498;2023-03-01T05:33:27;-9.70;99.90
45137;DHT22;30894;51.740;19.498;2023-03-01T05:35:53;-9.60;99.90
45137;DHT22;30894;51.740;19.498;2023-03-01T05:38:20;-9.60;99.90
45137;DHT22;30894;51.740;19.498;2023-03-01T05:40:48;-9.50;99.90
45137;DHT22;30894;51.740;19.498;2023-03-01T05:43:19;-9.40;99.90
45137;DHT22;30894;51.740;19.498;2023-03-01T05:45:48;-9.40;99.90
45137;DHT22;30894;51.740;19.498;2023-03-01T05:48:15;-9.30;99.90
45137;DHT22;30894;51.740;19.498;2023-03-01T05:50:46;-9.30;99.90
45137;DHT22;30894;51.740;19.498;2023-03-01T05:53:16;-9.30;99.90
45137;DHT22;30894;51.740;19.498;2023-03-01T05:55:47;-9.20;99.90
45137;DHT22;30894;51.740;19.498;2023-03-01T05:58:18;-9.10;99.90
45137;DHT22;30894;51.740;19.498;2023-03-01T06:00:48;-9.20;99.90
45137;DHT22;30894;51.740;19.498;2023-03-01T06:03:16;-9.00;99.90
45137;DHT22;30894;51.740;19.498;2023-03-01T06:05:46;-8.70;99.90
45137;DHT22;30894;51.740;19.498;2023-03-01T06:08:13;-8.60;99.90
45137;DHT22;30894;51.740;19.498;2023-03-01T06:10:41;-8.30;99.90
45137;DHT22;30894;51.740;19.498;2023-03-01T06:13:13;-8.00;99.90
45137;DHT22;30894;51.740;19.498;2023-03-01T06:15:44;-7.70;99.90
45137;DHT22;30894;51.740;19.498;2023-03-01T06:18:10;-7.40;99.90
45137;DHT22;30894;51.740;19.498;2023-03-01T06:20:36;-7.10;99.90
45137;DHT22;30894;51.740;19.498;2023-03-01T06:23:05;-6.80;99.90
45137;DHT22;30894;51.740;19.498;2023-03-01T06:25:33;-6.60;99.90
45137;DHT22;30894;51.740;19.498;2023-03-01T06:27:59;-6.20;99.90
45137;DHT22;30894;51.740;19.498;2023-03-01T06:30:26;-5.90;99.90
45137;DHT22;30894;51.740;19.498;2023-03-01T06:32:53;-5.60;99.90
45137;DHT22;30894;51.740;19.498;2023-03-01T06:35:26;-5.40;99.90
45137;DHT22;30894;51.740;19.498;2023-03-01T06:37:55;-5.20;99.90
45137;DHT22;30894;51.740;19.498;2023-03-01T06:40:26;-5.00;99.90
45137;DHT22;30894;51.740;19.498;2023-03-01T06:42:53;-4.70;99.90
45137;DHT22;30894;51.740;19.498;2023-03-01T06:45:24;-4.40;99.90
45137;DHT22;30894;51.740;19.498;2023-03-01T06:47:50;-4.00;99.90
45137;DHT22;30894;51.740;19.498;2023-03-01T06:50:17;-3.60;99.90
45137;DHT22;30894;51.740;19.498;2023-03-01T06:52:47;-3.20;99.90
45137;DHT22;30894;51.740;19.498;2023-03-01T06:55:15;-2.70;99.90
45137;DHT22;30894;51.740;19.498;2023-03-01T06:57:42;-2.20;99.90
45137;DHT22;30894;51.740;19.498;2023-03-01T07:00:09;-1.80;99.90
45137;DHT22;30894;51.740;19.498;2023-03-01T07:02:39;-1.50;99.90
45137;DHT22;30894;51.740;19.498;2023-03-01T07:05:06;-1.30;99.90
45137;DHT22;30894;51.740;19.498;2023-03-01T07:07:32;-1.00;99.90
45137;DHT22;30894;51.740;19.498;2023-03-01T07:09:59;-0.60;99.90
45137;DHT22;30894;51.740;19.498;2023-03-01T07:12:25;-0.30;99.90
45137;DHT22;30894;51.740;19.498;2023-03-01T07:14:55;0.10;99.90
45137;DHT22;30894;51.740;19.498;2023-03-01T07:17:26;0.50;99.90
45137;DHT22;30894;51.740;19.498;2023-03-01T07:19:52;0.80;99.90
45137;DHT22;30894;51.740;19.498;2023-03-01T07:22:19;1.00;99.90
45137;DHT22;30894;51.740;19.498;2023-03-01T07:24:45;1.30;99.90
45137;DHT22;30894;51.740;19.498;2023-03-01T07:27:18;1.60;99.90
45137;DHT22;30894;51.740;19.498;2023-03-01T07:29:46;1.90;99.90
45137;DHT22;30894;51.740;19.498;2023-03-01T07:32:12;2.40;99.90
45137;DHT22;30894;51.740;19.498;2023-03-01T07:34:47;2.80;99.90
45137;DHT22;30894;51.740;19.498;2023-03-01T07:37:22;3.30;99.90
45137;DHT22;30894;51.740;19.498;2023-03-01T07:39:58;3.50;99.90
45137;DHT22;30894;51.740;19.498;2023-03-01T07:42:29;3.60;99.90
45137;DHT22;30894;51.740;19.498;2023-03-01T07:45:11;3.70;99.90
45137;DHT22;30894;51.740;19.498;2023-03-01T07:47:42;3.80;99.90
45137;DHT22;30894;51.740;19.498;2023-03-01T07:50:18;4.00;99.90
45137;DHT22;30894;51.740;19.498;2023-03-01T07:52:46;4.30;99.90
45137;DHT22;30894;51.740;19.498;2023-03-01T07:55:20;4.50;99.90
45137;DHT22;30894;51.740;19.498;2023-03-01T07:57:50;4.80;99.90
45137;DHT22;30894;51.740;19.498;2023-03-01T08:00:19;5.20;99.90
45137;DHT22;30894;51.740;19.498;2023-03-01T08:02:50;5.60;99.90
45137;DHT22;30894;51.740;19.498;2023-03-01T08:05:28;6.00;99.90
45137;DHT22;30894;51.740;19.498;2023-03-01T08:07:57;6.20;98.70
45137;DHT22;30894;51.740;19.498;2023-03-01T08:10:27;6.40;97.60
45137;DHT22;30894;51.740;19.498;2023-03-01T08:12:53;6.60;96.10
45137;DHT22;30894;51.740;19.498;2023-03-01T08:15:27;7.00;95.20
45137;DHT22;30894;51.740;19.498;2023-03-01T08:17:58;7.20;93.90
45137;DHT22;30894;51.740;19.498;2023-03-01T08:20:35;7.70;92.60
45137;DHT22;30894;51.740;19.498;2023-03-01T08:23:04;8.10;91.10
45137;DHT22;30894;51.740;19.498;2023-03-01T08:25:33;8.70;89.40
45137;DHT22;30894;51.740;19.498;2023-03-01T08:27:59;9.30;85.90
45137;DHT22;30894;51.740;19.498;2023-03-01T08:30:30;9.80;82.70
45137;DHT22;30894;51.740;19.498;2023-03-01T08:33:07;10.20;79.80
45137;DHT22;30894;51.740;19.498;2023-03-01T08:35:41;10.70;77.60
45137;DHT22;30894;51.740;19.498;2023-03-01T08:38:15;11.10;75.40
45137;DHT22;30894;51.740;19.498;2023-03-01T08:40:41;11.40;73.70
45137;DHT22;30894;51.740;19.498;2023-03-01T08:43:12;11.60;72.50
45137;DHT22;30894;51.740;19.498;2023-03-01T08:45:46;11.90;71.60
45137;DHT22;30894;51.740;19.498;2023-03-01T08:48:16;11.90;70.70
45137;DHT22;30894;51.740;19.498;2023-03-01T08:50:51;12.10;70.30
45137;DHT22;30894;51.740;19.498;2023-03-01T08:53:18;12.20;69.50
45137;DHT22;30894;51.740;19.498;2023-03-01T08:55:52;12.10;69.40
45137;DHT22;30894;51.740;19.498;2023-03-01T08:58:21;12.40;69.10
45137;DHT22;30894;51.740;19.498;2023-03-01T09:00:53;12.40;68.70
45137;DHT22;30894;51.740;19.498;2023-03-01T09:03:27;12.30;68.80
45137;DHT22;30894;51.740;19.498;2023-03-01T09:06:03;12.20;68.60
45137;DHT22;30894;51.740;19.498;2023-03-01T09:08:45;12.50;68.60
45137;DHT22;30894;51.740;19.498;2023-03-01T09:11:17;12.60;68.10
45137;DHT22;30894;51.740;19.498;2023-03-01T09:13:46;12.80;67.90
45137;DHT22;30894;51.740;19.498;2023-03-01T09:16:18;12.80;67.60
45137;DHT22;30894;51.740;19.498;2023-03-01T09:18:49;12.90;67.40
45137;DHT22;30894;51.740;19.498;2023-03-01T09:21:22;12.90;67.40
45137;DHT22;30894;51.740;19.498;2023-03-01T09:23:52;13.00;67.50
45137;DHT22;30894;51.740;19.498;2023-03-01T09:26:22;13.20;67.40
45137;DHT22;30894;51.740;19.498;2023-03-01T09:28:57;13.20;67.60
45137;DHT22;30894;51.740;19.498;2023-03-01T09:31:26;13.60;67.60
45137;DHT22;30894;51.740;19.498;2023-03-01T09:33:55;14.00;67.00
45137;DHT22;30894;51.740;19.498;2023-03-01T09:36:29;14.40;66.70
45137;DHT22;30894;51.740;19.498;2023-03-01T09:38:59;15.00;66.10
45137;DHT22;30894;51.740;19.498;2023-03-01T09:44:35;15.40;66.20
45137;DHT22;30894;51.740;19.498;2023-03-01T09:47:05;15.70;66.80
45137;DHT22;30894;51.740;19.498;2023-03-01T09:53:16;16.40;68.20
45137;DHT22;30894;51.740;19.498;2023-03-01T09:56:02;16.30;69.00
45137;DHT22;30894;51.740;19.498;2023-03-01T09:58:51;16.20;69.90
45137;DHT22;30894;51.740;19.498;2023-03-01T10:01:33;16.20;70.80
45137;DHT22;30894;51.740;19.498;2023-03-01T10:04:27;16.30;71.30
45137;DHT22;30894;51.740;19.498;2023-03-01T10:07:10;16.50;71.90
45137;DHT22;30894;51.740;19.498;2023-03-01T10:09:47;16.90;72.50
45137;DHT22;30894;51.740;19.498;2023-03-01T10:12:17;17.60;72.20
45137;DHT22;30894;51.740;19.498;2023-03-01T10:15:08;17.90;72.20
45137;DHT22;30894;51.740;19.498;2023-03-01T10:18:01;18.00;72.00
45137;DHT22;30894;51.740;19.498;2023-03-01T10:20:52;18.20;72.70
45137;DHT22;30894;51.740;19.498;2023-03-01T10:23:24;18.30;72.70
45137;DHT22;30894;51.740;19.498;2023-03-01T10:26:08;18.40;73.40
45137;DHT22;30894;51.740;19.498;2023-03-01T10:31:45;19.10;73.70
45137;DHT22;30894;51.740;19.498;2023-03-01T10:34:15;19.20;73.60
45137;DHT22;30894;51.740;19.498;2023-03-01T10:36:48;19.30;74.00
45137;DHT22;30894;51.740;19.498;2023-03-01T10:39:21;19.20;74.10
45137;DHT22;30894;51.740;19.498;2023-03-01T10:42:24;19.00;74.50
45137;DHT22;30894;51.740;19.498;2023-03-01T10:48:16;19.00;75.90
45137;DHT22;30894;51.740;19.498;2023-03-01T10:53:28;19.20;75.90
45137;DHT22;30894;51.740;19.498;2023-03-01T10:56:26;19.50;75.80
45137;DHT22;30894;51.740;19.498;2023-03-01T10:59:00;19.90;75.10
45137;DHT22;30894;51.740;19.498;2023-03-01T11:01:35;20.00;74.50
45137;DHT22;30894;51.740;19.498;2023-03-01T11:06:35;19.80;74.00
45137;DHT22;30894;51.740;19.498;2023-03-01T11:09:20;19.60;74.10
45137;DHT22;30894;51.740;19.498;2023-03-01T11:11:53;19.60;74.60
45137;DHT22;30894;51.740;19.498;2023-03-01T11:14:22;19.70;73.50
45137;DHT22;30894;51.740;19.498;2023-03-01T11:17:17;19.40;72.90
45137;DHT22;30894;51.740;19.498;2023-03-01T11:20:02;19.20;73.70
45137;DHT22;30894;51.740;19.498;2023-03-01T11:23:01;19.10;73.30
45137;DHT22;30894;51.740;19.498;2023-03-01T11:25:49;19.20;72.90
45137;DHT22;30894;51.740;19.498;2023-03-01T11:28:29;19.50;73.20
45137;DHT22;30894;51.740;19.498;2023-03-01T11:40:55;21.00;69.30
45137;DHT22;30894;51.740;19.498;2023-03-01T11:58:05;18.70;72.00
45137;DHT22;30894;51.740;19.498;2023-03-01T12:01:24;19.00;72.50
45137;DHT22;30894;51.740;19.498;2023-03-01T12:06:59;19.50;71.50
45137;DHT22;30894;51.740;19.498;2023-03-01T12:16:03;19.80;70.00
45137;DHT22;30894;51.740;19.498;2023-03-01T12:22:17;20.70;67.70
45137;DHT22;30894;51.740;19.498;2023-03-01T12:32:06;21.10;67.00
45137;DHT22;30894;51.740;19.498;2023-03-01T12:49:14;21.40;65.80
45137;DHT22;30894;51.740;19.498;2023-03-01T12:52:02;21.20;66.10
45137;DHT22;30894;51.740;19.498;2023-03-01T12:54:45;21.20;66.40
45137;DHT22;30894;51.740;19.498;2023-03-01T13:03:37;21.30;65.90
45137;DHT22;30894;51.740;19.498;2023-03-01T13:09:05;20.90;66.40
45137;DHT22;30894;51.740;19.498;2023-03-01T13:11:35;20.80;66.60
45137;DHT22;30894;51.740;19.498;2023-03-01T13:16:57;20.70;66.90
45137;DHT22;30894;51.740;19.498;2023-03-01T13:20:02;20.50;66.70
45137;DHT22;30894;51.740;19.498;2023-03-01T13:23:06;20.50;67.20
45137;DHT22;30894;51.740;19.498;2023-03-01T13:25:33;20.60;66.60
45137;DHT22;30894;51.740;19.498;2023-03-01T13:28:39;20.30;66.90
45137;DHT22;30894;51.740;19.498;2023-03-01T13:33:48;19.90;67.30
45137;DHT22;30894;51.740;19.498;2023-03-01T13:39:01;19.50;68.00
45137;DHT22;30894;51.740;19.498;2023-03-01T13:44:31;19.50;68.20
45137;DHT22;30894;51.740;19.498;2023-03-01T13:47:14;19.40;68.50
45137;DHT22;30894;51.740;19.498;2023-03-01T13:55:54;19.10;69.10
45137;DHT22;30894;51.740;19.498;2023-03-01T13:58:43;18.90;69.50
45137;DHT22;30894;51.740;19.498;2023-03-01T14:01:29;18.60;70.00
45137;DHT22;30894;51.740;19.498;2023-03-01T14:04:38;18.20;70.40
45137;DHT22;30894;51.740;19.498;2023-03-01T14:07:26;18.00;71.30
45137;DHT22;30894;51.740;19.498;2023-03-01T14:10:03;17.80;71.20
45137;DHT22;30894;51.740;19.498;2023-03-01T14:13:23;17.60;71.60
45137;DHT22;30894;51.740;19.498;2023-03-01T14:16:20;17.30;72.20
45137;DHT22;30894;51.740;19.498;2023-03-01T14:24:59;16.60;73.10
45137;DHT22;30894;51.740;19.498;2023-03-01T14:31:42;16.20;73.50
45137;DHT22;30894;51.740;19.498;2023-03-01T14:40:22;15.30;74.60
45137;DHT22;30894;51.740;19.498;2023-03-01T14:43:16;15.00;75.30
45137;DHT22;30894;51.740;19.498;2023-03-01T14:45:48;14.40;76.20
45137;DHT22;30894;51.740;19.498;2023-03-01T14:48:25;14.00;76.90
45137;DHT22;30894;51.740;19.498;2023-03-01T14:50:59;13.80;77.40
45137;DHT22;30894;51.740;19.498;2023-03-01T14:53:41;13.60;78.40
45137;DHT22;30894;51.740;19.498;2023-03-01T14:56:27;13.30;78.20
45137;DHT22;30894;51.740;19.498;2023-03-01T14:59:09;13.10;78.50
45137;DHT22;30894;51.740;19.498;2023-03-01T15:01:41;12.70;79.00
45137;DHT22;30894;51.740;19.498;2023-03-01T15:04:12;12.30;79.40
45137;DHT22;30894;51.740;19.498;2023-03-01T15:06:50;11.90;80.00
45137;DHT22;30894;51.740;19.498;2023-03-01T15:09:30;11.50;80.70
45137;DHT22;30894;51.740;19.498;2023-03-01T15:15:18;10.80;82.20
45137;DHT22;30894;51.740;19.498;2023-03-01T15:17:55;10.50;83.40
45137;DHT22;30894;51.740;19.498;2023-03-01T15:20:54;10.00;84.20
45137;DHT22;30894;51.740;19.498;2023-03-01T15:23:26;9.60;85.00
45137;DHT22;30894;51.740;19.498;2023-03-01T15:26:16;9.30;85.60
45137;DHT22;30894;51.740;19.498;2023-03-01T15:29:00;8.90;86.30
45137;DHT22;30894;51.740;19.498;2023-03-01T15:31:36;8.50;87.00
45137;DHT22;30894;51.740;19.498;2023-03-01T15:34:37;8.30;87.60
45137;DHT22;30894;51.740;19.498;2023-03-01T15:37:46;7.80;88.50
45137;DHT22;30894;51.740;19.498;2023-03-01T15:43:05;7.10;90.20
45137;DHT22;30894;51.740;19.498;2023-03-01T15:45:56;6.70;90.70
45137;DHT22;30894;51.740;19.498;2023-03-01T15:48:36;6.30;91.30
45137;DHT22;30894;51.740;19.498;2023-03-01T15:51:14;6.00;91.90
45137;DHT22;30894;51.740;19.498;2023-03-01T15:53:44;5.70;92.40
45137;DHT22;30894;51.740;19.498;2023-03-01T15:56:27;5.50;92.90
45137;DHT22;30894;51.740;19.498;2023-03-01T15:59:02;5.20;93.40
45137;DHT22;30894;51.740;19.498;2023-03-01T16:01:30;5.00;93.80
45137;DHT22;30894;51.740;19.498;2023-03-01T16:04:02;4.80;94.30
45137;DHT22;30894;51.740;19.498;2023-03-01T16:06:32;4.60;94.70
45137;DHT22;30894;51.740;19.498;2023-03-01T16:09:05;4.40;95.10
45137;DHT22;30894;51.740;19.498;2023-03-01T16:11:35;4.10;95.60
45137;DHT22;30894;51.740;19.498;2023-03-01T16:14:05;3.90;96.00
45137;DHT22;30894;51.740;19.498;2023-03-01T16:16:33;3.70;96.50
45137;DHT22;30894;51.740;19.498;2023-03-01T16:19:11;3.50;96.90
45137;DHT22;30894;51.740;19.498;2023-03-01T16:21:38;3.20;97.30
45137;DHT22;30894;51.740;19.498;2023-03-01T16:24:07;2.90;97.70
45137;DHT22;30894;51.740;19.498;2023-03-01T16:26:37;2.70;98.00
45137;DHT22;30894;51.740;19.498;2023-03-01T16:29:13;2.50;98.40
45137;DHT22;30894;51.740;19.498;2023-03-01T16:31:49;2.30;98.90
45137;DHT22;30894;51.740;19.498;2023-03-01T16:34:17;2.10;99.10
45137;DHT22;30894;51.740;19.498;2023-03-01T16:36:50;1.90;99.50
45137;DHT22;30894;51.740;19.498;2023-03-01T16:39:19;1.80;99.70
45137;DHT22;30894;51.740;19.498;2023-03-01T16:41:51;1.60;99.90
45137;DHT22;30894;51.740;19.498;2023-03-01T16:44:25;1.40;99.90
45137;DHT22;30894;51.740;19.498;2023-03-01T16:46:54;1.10;99.90
45137;DHT22;30894;51.740;19.498;2023-03-01T16:49:20;0.90;99.90
45137;DHT22;30894;51.740;19.498;2023-03-01T16:51:57;0.70;99.90
45137;DHT22;30894;51.740;19.498;2023-03-01T16:54:30;0.50;99.90
45137;DHT22;30894;51.740;19.498;2023-03-01T16:56:59;0.50;99.90
45137;DHT22;30894;51.740;19.498;2023-03-01T16:59:33;0.50;99.90
45137;DHT22;30894;51.740;19.498;2023-03-01T17:02:01;0.50;99.90
45137;DHT22;30894;51.740;19.498;2023-03-01T17:04:36;0.40;99.90
45137;DHT22;30894;51.740;19.498;2023-03-01T17:07:04;0.30;99.90
45137;DHT22;30894;51.740;19.498;2023-03-01T17:09:38;0.20;99.90
45137;DHT22;30894;51.740;19.498;2023-03-01T17:12:07;0.20;99.90
45137;DHT22;30894;51.740;19.498;2023-03-01T17:14:43;0.10;99.90
45137;DHT22;30894;51.740;19.498;2023-03-01T17:17:12;0.00;99.90
45137;DHT22;30894;51.740;19.498;2023-03-01T17:19:41;-0.10;99.90
45137;DHT22;30894;51.740;19.498;2023-03-01T17:22:12;-0.20;99.90
45137;DHT22;30894;51.740;19.498;2023-03-01T17:24:43;-0.30;99.90
45137;DHT22;30894;51.740;19.498;2023-03-01T17:27:19;-0.40;99.90
45137;DHT22;30894;51.740;19.498;2023-03-01T17:29:49;-0.50;99.90
45137;DHT22;30894;51.740;19.498;2023-03-01T17:32:17;-0.70;99.90
45137;DHT22;30894;51.740;19.498;2023-03-01T17:34:53;-0.90;99.90
45137;DHT22;30894;51.740;19.498;2023-03-01T17:37:20;-1.00;99.90
45137;DHT22;30894;51.740;19.498;2023-03-01T17:39:56;-1.20;99.90
45137;DHT22;30894;51.740;19.498;2023-03-01T17:42:25;-1.40;99.90
45137;DHT22;30894;51.740;19.498;2023-03-01T17:44:59;-1.50;99.90
45137;DHT22;30894;51.740;19.498;2023-03-01T17:47:26;-1.70;99.90
45137;DHT22;30894;51.740;19.498;2023-03-01T17:49:57;-1.80;99.90
45137;DHT22;30894;51.740;19.498;2023-03-01T17:52:25;-1.90;99.90
45137;DHT22;30894;51.740;19.498;2023-03-01T17:54:54;-2.00;99.90
45137;DHT22;30894;51.740;19.498;2023-03-01T17:57:32;-2.10;99.90
45137;DHT22;30894;51.740;19.498;2023-03-01T18:00:06;-2.20;99.90
45137;DHT22;30894;51.740;19.498;2023-03-01T18:02:37;-2.30;99.90
45137;DHT22;30894;51.740;19.498;2023-03-01T18:05:06;-2.40;99.90
45137;DHT22;30894;51.740;19.498;2023-03-01T18:07:38;-2.50;99.90
45137;DHT22;30894;51.740;19.498;2023-03-01T18:10:06;-2.60;99.90
45137;DHT22;30894;51.740;19.498;2023-03-01T18:12:34;-2.70;99.90